createdAt,value
2019-01-19T00:00:51.788Z,12.70
2019-01-19T00:03:49.213Z,14.78
2019-01-19T00:06:42.969Z,12.85
2019-01-19T00:09:38.632Z,13.58
2019-01-19T00:12:39.483Z,12.55
2019-01-19T00:15:34.920Z,11.97
2019-01-19T00:18:37.032Z,11.60
2019-01-19T00:21:32.169Z,14.33
2019-01-19T00:24:42.812Z,13.13
2019-01-19T00:27:51.440Z,14.60
2019-01-19T00:30:28.277Z,14.65
2019-01-19T00:33:51.019Z,13.55
2019-01-19T00:36:26.090Z,12.28
2019-01-19T00:39:34.340Z,12.15
2019-01-19T00:42:29.879Z,11.22
2019-01-19T00:45:51.505Z,11.00
2019-01-19T00:48:52.796Z,11.45
2019-01-19T00:51:41.485Z,12.13
2019-01-19T00:54:14.905Z,11.30
2019-01-19T00:57:04.526Z,14.90
2019-01-19T00:59:38.411Z,11.80
2019-01-19T01:02:47.276Z,11.80
2019-01-19T01:05:34.126Z,11.12
2019-01-19T01:08:23.583Z,11.50
2019-01-19T01:11:08.435Z,12.55
2019-01-19T01:14:17.618Z,12.07
2019-01-19T01:17:39.047Z,11.80
2019-01-19T01:20:41.870Z,13.93
2019-01-19T01:23:35.047Z,11.57
2019-01-19T01:26:27.349Z,11.85
2019-01-19T01:29:17.499Z,12.05
2019-01-19T01:31:57.486Z,12.47
2019-01-19T01:35:16.007Z,12.82
2019-01-19T01:37:50.886Z,11.57
2019-01-19T01:40:50.388Z,11.70
2019-01-19T01:44:06.557Z,12.50
2019-01-19T01:47:11.357Z,11.70
2019-01-19T01:50:11.829Z,10.45
2019-01-19T01:53:03.231Z,11.80
2019-01-19T01:55:47.491Z,12.50
2019-01-19T01:58:39.440Z,11.18
2019-01-19T02:01:57.187Z,12.60
2019-01-19T02:05:06.271Z,11.80
2019-01-19T02:07:57.507Z,12.00
2019-01-19T02:10:55.072Z,13.05
2019-01-19T02:13:52.376Z,11.93
2019-01-19T02:16:49.789Z,11.45
2019-01-19T02:19:51.699Z,11.78
2019-01-19T02:22:49.616Z,11.45
2019-01-19T02:25:28.891Z,11.97
2019-01-19T02:28:44.265Z,13.80
2019-01-19T02:31:43.550Z,11.45
2019-01-19T02:34:40.727Z,11.60
2019-01-19T02:37:39.521Z,10.18
2019-01-19T02:40:39.465Z,11.88
2019-01-19T02:43:18.320Z,10.05
2019-01-19T02:46:24.468Z,10.70
2019-01-19T02:49:16.747Z,11.48
2019-01-19T02:52:19.936Z,11.22
2019-01-19T02:55:41.816Z,11.70
2019-01-19T02:58:24.967Z,10.18
2019-01-19T03:01:31.003Z,11.80
2019-01-19T03:04:36.109Z,11.48
2019-01-19T03:07:35.236Z,10.43
2019-01-19T03:10:53.786Z,11.30
2019-01-19T03:14:03.707Z,9.45
2019-01-19T03:17:28.548Z,9.28
2019-01-19T03:20:50.290Z,8.13
2019-01-19T03:23:47.395Z,11.35
2019-01-19T03:26:40.232Z,11.12
2019-01-19T03:29:38.589Z,10.10
2019-01-19T03:32:27.442Z,10.80
2019-01-19T03:35:23.236Z,11.60
2019-01-19T03:38:20.326Z,10.10
2019-01-19T03:41:46.049Z,10.93
2019-01-19T03:45:11.100Z,9.53
2019-01-19T03:48:03.271Z,10.50
2019-01-19T03:50:38.628Z,10.35
2019-01-19T03:53:36.340Z,11.80
2019-01-19T03:56:30.761Z,10.58
2019-01-19T03:59:34.215Z,10.93
2019-01-19T04:03:17.987Z,10.90
2019-01-19T04:06:13.749Z,11.40
2019-01-19T04:09:30.091Z,9.70
2019-01-19T04:12:37.883Z,11.12
2019-01-19T04:15:57.355Z,10.53
2019-01-19T04:19:21.992Z,10.55
2019-01-19T04:22:16.084Z,10.18
2019-01-19T04:25:16.443Z,11.18
2019-01-19T04:27:45.500Z,11.28
2019-01-19T04:30:14.483Z,11.40
2019-01-19T04:32:43.235Z,12.33
2019-01-19T04:35:12.412Z,11.03
2019-01-19T04:37:41.347Z,11.45
2019-01-19T04:40:12.264Z,11.80
2019-01-19T04:42:42.866Z,11.65
2019-01-19T04:45:11.783Z,10.55
2019-01-19T04:47:41.726Z,11.75
2019-01-19T04:50:11.648Z,10.23
2019-01-19T04:52:40.403Z,12.80
2019-01-19T04:55:09.764Z,12.05
2019-01-19T04:57:38.584Z,11.70
2019-01-19T05:00:12.295Z,10.68
2019-01-19T05:02:41.343Z,9.95
2019-01-19T05:05:10.596Z,10.82
2019-01-19T05:07:39.864Z,11.35
2019-01-19T05:10:09.238Z,9.73
2019-01-19T05:12:38.129Z,10.68
2019-01-19T05:15:10.687Z,11.22
2019-01-19T05:17:39.980Z,10.78
2019-01-19T05:20:09.804Z,12.05
2019-01-19T05:22:39.103Z,11.83
2019-01-19T05:25:08.935Z,10.98
2019-01-19T05:27:37.834Z,11.05
2019-01-19T05:30:10.795Z,12.50
2019-01-19T05:32:40.757Z,11.97
2019-01-19T05:35:09.819Z,11.30
2019-01-19T05:37:38.818Z,10.95
2019-01-19T05:40:09.265Z,11.60
2019-01-19T05:42:38.028Z,12.50
2019-01-19T05:45:08.217Z,11.43
2019-01-19T05:47:37.005Z,10.15
2019-01-19T05:50:11.988Z,11.28
2019-01-19T05:52:40.852Z,10.78
2019-01-19T05:55:09.897Z,12.53
2019-01-19T05:57:39.004Z,11.75
2019-01-19T06:00:11.969Z,12.37
2019-01-19T06:02:41.036Z,12.73
2019-01-19T06:05:11.471Z,11.85
2019-01-19T06:07:41.605Z,11.85
2019-01-19T06:10:13.625Z,12.90
2019-01-19T06:12:42.529Z,11.55
2019-01-19T06:15:13.068Z,11.70
2019-01-19T06:17:42.531Z,11.53
2019-01-19T06:20:13.845Z,11.73
2019-01-19T06:22:43.069Z,12.25
2019-01-19T06:25:13.152Z,13.15
2019-01-19T06:27:42.093Z,12.50
2019-01-19T06:30:17.059Z,12.10
2019-01-19T06:32:46.088Z,12.15
2019-01-19T06:35:15.329Z,11.50
2019-01-19T06:37:44.220Z,12.10
2019-01-19T06:40:13.780Z,13.10
2019-01-19T06:42:42.754Z,12.05
2019-01-19T06:45:14.343Z,13.55
2019-01-19T06:47:43.328Z,12.82
2019-01-19T06:50:14.247Z,13.00
2019-01-19T06:52:43.100Z,12.98
2019-01-19T06:55:13.469Z,13.43
2019-01-19T06:57:42.324Z,11.50
2019-01-19T07:00:14.116Z,11.48
2019-01-19T07:02:43.210Z,12.40
2019-01-19T07:05:12.436Z,11.70
2019-01-19T07:07:42.431Z,13.20
2019-01-19T07:10:14.751Z,9.75
2019-01-19T07:12:43.616Z,11.48
2019-01-19T07:15:13.390Z,11.38
2019-01-19T07:17:42.440Z,11.40
2019-01-19T07:20:14.202Z,11.10
2019-01-19T07:22:43.421Z,12.15
2019-01-19T07:25:13.118Z,10.30
2019-01-19T07:27:42.002Z,11.55
2019-01-19T07:30:13.974Z,13.72
2019-01-19T07:32:45.039Z,12.25
2019-01-19T07:35:15.838Z,12.80
2019-01-19T07:37:48.546Z,11.78
2019-01-19T07:40:18.998Z,10.72
2019-01-19T07:42:52.552Z,11.68
2019-01-19T07:45:23.330Z,13.00
2019-01-19T07:47:54.587Z,14.83
2019-01-19T07:50:24.498Z,11.68
2019-01-19T07:52:55.771Z,13.05
2019-01-19T07:55:26.895Z,11.83
2019-01-19T07:57:57.170Z,14.15
2019-01-19T08:00:29.985Z,13.78
2019-01-19T08:03:01.651Z,14.10
2019-01-19T08:05:32.772Z,15.05
2019-01-19T08:08:04.386Z,14.28
2019-01-19T08:10:35.195Z,16.10
2019-01-19T08:13:06.258Z,16.17
2019-01-19T08:15:37.603Z,18.40
2019-01-19T08:18:08.835Z,16.57
2019-01-19T08:20:39.346Z,17.80
2019-01-19T08:23:10.025Z,17.55
2019-01-19T08:25:40.630Z,15.70
2019-01-19T08:28:11.914Z,17.10
2019-01-19T08:30:41.807Z,19.50
2019-01-19T08:33:12.957Z,20.43
2019-01-19T08:35:44.107Z,21.65
2019-01-19T08:38:15.631Z,21.65
2019-01-19T08:40:46.376Z,24.15
2019-01-19T08:43:29.422Z,23.52
2019-01-19T08:45:59.736Z,25.52
2019-01-19T08:48:30.922Z,26.33
2019-01-19T08:51:00.826Z,26.23
2019-01-19T08:53:32.693Z,25.17
2019-01-19T08:56:03.591Z,26.93
2019-01-19T08:58:35.113Z,26.33
2019-01-19T09:01:05.674Z,25.15
2019-01-19T09:03:35.305Z,27.02
2019-01-19T09:06:05.538Z,24.27
2019-01-19T09:08:36.232Z,27.35
2019-01-19T09:11:06.687Z,26.57
2019-01-19T09:13:38.234Z,25.32
2019-01-19T09:16:20.228Z,26.20
2019-01-19T09:18:51.046Z,24.80
2019-01-19T09:21:21.385Z,26.50
2019-01-19T09:23:59.484Z,25.92
2019-01-19T09:26:30.232Z,23.85
2019-01-19T09:28:59.433Z,25.55
2019-01-19T09:31:29.060Z,27.75
2019-01-19T09:33:59.822Z,26.82
2019-01-19T09:36:30.040Z,26.80
2019-01-19T09:38:59.877Z,26.82
2019-01-19T09:41:30.517Z,26.30
2019-01-19T09:44:00.394Z,26.93
2019-01-19T09:46:32.623Z,29.23
2019-01-19T09:49:03.082Z,27.58
2019-01-19T09:51:32.055Z,28.77
2019-01-19T09:54:01.277Z,28.05
2019-01-19T09:56:31.886Z,27.62
2019-01-19T09:59:01.763Z,25.85
2019-01-19T10:01:32.098Z,27.60
2019-01-19T10:04:01.409Z,27.32
2019-01-19T10:06:30.600Z,27.52
2019-01-19T10:08:59.921Z,28.25
2019-01-19T10:11:29.037Z,30.15
2019-01-19T10:13:59.178Z,25.85
2019-01-19T10:16:28.214Z,28.27
2019-01-19T10:18:57.832Z,27.90
2019-01-19T10:21:27.588Z,28.87
2019-01-19T10:23:57.225Z,27.02
2019-01-19T10:26:26.756Z,27.67
2019-01-19T10:28:56.208Z,27.55
2019-01-19T10:31:27.977Z,27.05
2019-01-19T10:33:58.075Z,28.53
2019-01-19T10:36:27.297Z,30.53
2019-01-19T10:38:56.184Z,28.07
2019-01-19T10:41:24.992Z,27.80
2019-01-19T10:43:53.745Z,27.63
2019-01-19T10:46:23.576Z,27.13
2019-01-19T10:48:53.612Z,28.20
2019-01-19T10:51:23.144Z,27.97
2019-01-19T10:53:52.603Z,29.20
2019-01-19T10:56:22.416Z,28.83
2019-01-19T10:58:51.256Z,26.60
2019-01-19T11:01:21.112Z,26.97
2019-01-19T11:03:50.245Z,27.83
2019-01-19T11:06:19.342Z,27.53
2019-01-19T11:08:48.187Z,25.60
2019-01-19T11:11:17.507Z,25.93
2019-01-19T11:13:46.615Z,26.07
2019-01-19T11:16:16.082Z,26.40
2019-01-19T11:18:44.928Z,25.87
2019-01-19T11:21:13.848Z,26.20
2019-01-19T11:23:42.705Z,26.70
2019-01-19T11:26:11.571Z,26.70
2019-01-19T11:28:40.483Z,25.40
2019-01-19T11:31:09.360Z,27.93
2019-01-19T11:33:38.160Z,27.17
2019-01-19T11:36:26.282Z,26.63
2019-01-19T11:39:07.315Z,26.67
2019-01-19T11:41:52.814Z,29.10
2019-01-19T11:44:31.706Z,28.03
2019-01-19T11:47:12.879Z,28.50
2019-01-19T11:49:48.903Z,28.57
2019-01-19T11:52:18.239Z,27.57
2019-01-19T11:54:47.372Z,28.40
2019-01-19T11:57:16.221Z,27.97
2019-01-19T11:59:45.039Z,26.80
2019-01-19T12:02:13.835Z,28.30
2019-01-19T12:04:42.640Z,27.83
2019-01-19T12:07:11.431Z,27.57
2019-01-19T12:09:41.246Z,27.17
2019-01-19T12:12:10.393Z,28.17
2019-01-19T12:14:39.489Z,28.27
2019-01-19T12:17:08.336Z,27.40
2019-01-19T12:19:37.579Z,28.50
2019-01-19T12:22:06.769Z,25.27
2019-01-19T12:24:36.433Z,25.73
2019-01-19T12:27:05.746Z,28.07
2019-01-19T12:29:34.543Z,26.87
2019-01-19T12:32:03.874Z,27.00
2019-01-19T12:34:32.797Z,25.13
2019-01-19T12:37:01.771Z,25.60
2019-01-19T12:39:30.536Z,28.83
2019-01-19T12:41:59.387Z,25.33
2019-01-19T12:44:29.234Z,27.90
2019-01-19T12:46:58.072Z,25.73
2019-01-19T12:49:27.005Z,23.70
2019-01-19T12:51:55.968Z,25.47
2019-01-19T12:54:24.804Z,24.53
2019-01-19T12:56:53.753Z,25.00
2019-01-19T12:59:22.553Z,23.93
2019-01-19T13:01:51.400Z,25.07
2019-01-19T13:04:20.237Z,23.60
2019-01-19T13:07:13.579Z,23.77
2019-01-19T13:09:52.816Z,23.90
2019-01-19T13:12:38.769Z,24.23
2019-01-19T13:15:47.258Z,24.83
2019-01-19T13:18:34.851Z,25.37
2019-01-19T13:21:41.162Z,24.80
2019-01-19T13:25:03.307Z,24.40
2019-01-19T13:28:00.914Z,24.30
2019-01-19T13:31:00.729Z,24.50
2019-01-19T13:33:51.041Z,22.90
2019-01-19T13:36:55.784Z,22.40
2019-01-19T13:40:13.189Z,22.13
2019-01-19T13:43:05.152Z,24.30
2019-01-19T13:46:06.601Z,22.97
2019-01-19T13:49:04.506Z,23.10
2019-01-19T13:51:59.698Z,22.80
2019-01-19T13:54:43.949Z,23.60
2019-01-19T13:57:20.445Z,23.90
2019-01-19T13:59:56.853Z,22.60
2019-01-19T14:03:13.031Z,23.10
2019-01-19T14:06:17.622Z,23.73
2019-01-19T14:09:12.215Z,24.00
2019-01-19T14:12:01.687Z,23.95
2019-01-19T14:15:04.666Z,23.70
2019-01-19T14:17:47.753Z,24.05
2019-01-19T14:21:06.027Z,23.00
2019-01-19T14:24:13.374Z,22.22
2019-01-19T14:27:03.532Z,24.90
2019-01-19T14:29:58.344Z,25.32
2019-01-19T14:32:53.880Z,26.07
2019-01-19T14:36:04.917Z,24.63
2019-01-19T14:39:36.675Z,25.65
2019-01-19T14:42:51.152Z,26.12
2019-01-19T14:46:04.043Z,25.25
2019-01-19T14:49:10.869Z,26.65
2019-01-19T14:52:15.667Z,25.85
2019-01-19T14:54:59.944Z,26.87
2019-01-19T14:57:54.474Z,25.12
2019-01-19T15:01:03.793Z,25.20
2019-01-19T15:04:04.956Z,26.60
2019-01-19T15:07:03.379Z,27.10
2019-01-19T15:10:26.098Z,25.77
2019-01-19T15:13:26.829Z,27.75
2019-01-19T15:16:43.728Z,25.25
2019-01-19T15:19:39.294Z,27.15
2019-01-19T15:23:04.524Z,25.40
2019-01-19T15:26:08.760Z,24.45
2019-01-19T15:29:16.324Z,25.10
2019-01-19T15:31:59.150Z,27.65
2019-01-19T15:35:00.462Z,25.72
2019-01-19T15:38:15.454Z,26.55
2019-01-19T15:41:25.356Z,26.33
2019-01-19T15:44:33.247Z,25.52
2019-01-19T15:47:46.717Z,25.55
2019-01-19T15:50:48.873Z,25.25
2019-01-19T15:53:29.375Z,24.12
2019-01-19T15:56:22.592Z,25.35
2019-01-19T15:59:34.309Z,25.97
2019-01-19T16:02:39.567Z,24.10
2019-01-19T16:05:20.277Z,25.17
2019-01-19T16:08:22.512Z,24.35
2019-01-19T16:11:15.524Z,23.70
2019-01-19T16:14:41.216Z,24.85
2019-01-19T16:18:01.560Z,23.62
2019-01-19T16:20:39.995Z,24.00
2019-01-19T16:23:46.234Z,24.30
2019-01-19T16:27:08.429Z,25.30
2019-01-19T16:29:49.173Z,22.70
2019-01-19T16:32:50.469Z,22.75
2019-01-19T16:35:55.070Z,26.50
2019-01-19T16:39:00.435Z,24.60
2019-01-19T16:41:57.503Z,23.42
2019-01-19T16:44:56.865Z,24.15
2019-01-19T16:48:12.587Z,22.98
2019-01-19T16:51:09.958Z,22.20
2019-01-19T16:54:17.656Z,23.80
2019-01-19T16:57:14.503Z,23.98
2019-01-19T17:00:16.282Z,22.13
2019-01-19T17:03:29.127Z,23.22
2019-01-19T17:06:18.707Z,23.65
2019-01-19T17:09:12.537Z,24.95
2019-01-19T17:12:12.207Z,23.57
2019-01-19T17:15:17.655Z,24.98
2019-01-19T17:18:39.069Z,25.00
2019-01-19T17:21:38.861Z,25.20
2019-01-19T17:24:33.068Z,25.48
2019-01-19T17:27:42.349Z,24.40
2019-01-19T17:30:28.110Z,22.50
2019-01-19T17:33:23.300Z,23.75
2019-01-19T17:36:15.835Z,24.05
2019-01-19T17:39:47.211Z,25.88
2019-01-19T17:42:43.375Z,23.00
2019-01-19T17:45:36.627Z,22.67
2019-01-19T17:48:24.736Z,26.82
2019-01-19T17:51:25.594Z,25.20
2019-01-19T17:55:04.214Z,24.80
2019-01-19T17:58:12.132Z,25.32
2019-01-19T18:01:31.364Z,25.60
2019-01-19T18:04:48.885Z,23.83
2019-01-19T18:07:28.503Z,24.30
2019-01-19T18:11:16.166Z,25.02
2019-01-19T18:14:16.577Z,23.42
2019-01-19T18:17:29.130Z,24.60
2019-01-19T18:20:45.022Z,24.43
2019-01-19T18:23:53.330Z,24.10
2019-01-19T18:27:21.692Z,23.75
2019-01-19T18:30:26.641Z,24.75
2019-01-19T18:33:07.082Z,25.97
2019-01-19T18:36:00.972Z,23.50
2019-01-19T18:38:50.333Z,24.23
2019-01-19T18:41:37.841Z,23.90
2019-01-19T18:44:14.857Z,25.48
2019-01-19T18:47:06.810Z,23.83
2019-01-19T18:50:02.541Z,28.20
2019-01-19T18:52:58.585Z,25.55
2019-01-19T18:56:10.679Z,25.25
2019-01-19T18:58:55.796Z,24.12
2019-01-19T19:01:54.735Z,27.93
2019-01-19T19:04:48.887Z,24.15
2019-01-19T19:07:49.511Z,24.90
2019-01-19T19:10:47.111Z,26.40
2019-01-19T19:13:27.734Z,24.02
2019-01-19T19:16:27.111Z,23.52
2019-01-19T19:19:36.142Z,24.20
2019-01-19T19:22:31.178Z,27.02
2019-01-19T19:25:24.546Z,23.92
2019-01-19T19:28:37.164Z,23.83
2019-01-19T19:31:36.014Z,23.75
2019-01-19T19:34:45.088Z,22.05
2019-01-19T19:37:38.968Z,23.35
2019-01-19T19:40:47.913Z,23.50
2019-01-19T19:43:27.709Z,21.70
2019-01-19T19:46:16.887Z,24.43
2019-01-19T19:49:07.421Z,23.73
2019-01-19T19:52:05.769Z,25.72
2019-01-19T19:54:35.853Z,24.55
2019-01-19T19:57:05.592Z,24.25
2019-01-19T19:59:34.765Z,23.85
2019-01-19T20:02:04.525Z,25.88
2019-01-19T20:04:33.795Z,23.32
2019-01-19T20:07:03.027Z,21.82
2019-01-19T20:09:32.543Z,22.90
2019-01-19T20:12:07.128Z,22.73
2019-01-19T20:14:36.882Z,25.55
2019-01-19T20:17:06.845Z,23.35
2019-01-19T20:19:36.253Z,21.10
2019-01-19T20:22:05.656Z,21.55
2019-01-19T20:24:34.770Z,21.20
2019-01-19T20:27:04.970Z,20.40
2019-01-19T20:29:34.007Z,22.05
2019-01-19T20:32:02.993Z,20.65
2019-01-19T20:34:32.171Z,23.02
2019-01-19T20:37:01.504Z,20.37
2019-01-19T20:39:30.592Z,20.80
2019-01-19T20:41:59.520Z,20.00
2019-01-19T20:44:28.448Z,20.92
2019-01-19T20:46:57.751Z,21.33
2019-01-19T20:49:26.761Z,22.87
2019-01-19T20:51:56.647Z,22.05
2019-01-19T20:54:26.511Z,21.68
2019-01-19T20:56:55.447Z,21.45
2019-01-19T20:59:24.347Z,24.43
2019-01-19T21:01:53.218Z,22.00
2019-01-19T21:04:21.950Z,19.00
2019-01-19T21:06:50.991Z,21.37
2019-01-19T21:09:19.863Z,20.32
2019-01-19T21:11:48.794Z,19.55
2019-01-19T21:14:17.869Z,19.95
2019-01-19T21:16:46.917Z,20.10
2019-01-19T21:19:16.279Z,20.15
2019-01-19T21:21:45.111Z,19.90
2019-01-19T21:24:14.024Z,17.67
2019-01-19T21:26:42.844Z,21.48
2019-01-19T21:29:11.940Z,19.77
2019-01-19T21:31:40.852Z,22.35
2019-01-19T21:34:10.109Z,17.45
2019-01-19T21:36:38.998Z,19.15
2019-01-19T21:39:08.941Z,20.45
2019-01-19T21:41:37.963Z,22.95
2019-01-19T21:44:06.835Z,20.57
2019-01-19T21:46:35.874Z,19.20
2019-01-19T21:49:04.928Z,18.95
2019-01-19T21:51:34.156Z,19.98
2019-01-19T21:54:03.405Z,18.70
2019-01-19T21:56:32.276Z,21.02
2019-01-19T21:59:01.241Z,18.52
2019-01-19T22:01:30.236Z,20.00
2019-01-19T22:03:59.259Z,21.20
2019-01-19T22:06:28.274Z,20.23
2019-01-19T22:08:57.256Z,18.77
2019-01-19T22:11:26.060Z,18.75
2019-01-19T22:13:55.135Z,17.40
2019-01-19T22:16:23.992Z,19.60
2019-01-19T22:18:52.861Z,18.50
2019-01-19T22:21:22.063Z,16.57
2019-01-19T22:23:51.219Z,16.55
2019-01-19T22:26:20.719Z,20.82
2019-01-19T22:28:49.491Z,18.90
2019-01-19T22:31:18.440Z,18.70
2019-01-19T22:33:47.355Z,17.60
2019-01-19T22:36:16.232Z,18.92
2019-01-19T22:38:45.575Z,16.42
2019-01-19T22:41:14.600Z,17.15
2019-01-19T22:43:43.504Z,19.40
2019-01-19T22:46:12.494Z,18.30
2019-01-19T22:48:41.412Z,16.30
2019-01-19T22:51:11.362Z,19.32
2019-01-19T22:53:40.661Z,19.85
2019-01-19T22:56:09.448Z,16.52
2019-01-19T22:58:38.559Z,17.55
2019-01-19T23:01:49.380Z,20.08
2019-01-19T23:04:18.252Z,17.90
2019-01-19T23:06:48.125Z,18.37
2019-01-19T23:09:17.138Z,16.27
2019-01-19T23:11:46.516Z,17.35
2019-01-19T23:14:15.680Z,16.45
2019-01-19T23:16:44.700Z,18.17
2019-01-19T23:19:14.286Z,19.23
2019-01-19T23:21:43.354Z,17.80
2019-01-19T23:24:12.498Z,17.60
2019-01-19T23:26:41.652Z,17.20
2019-01-19T23:29:10.746Z,16.93
2019-01-19T23:31:39.604Z,18.60
2019-01-19T23:34:08.451Z,18.70
2019-01-19T23:36:37.314Z,17.62
2019-01-19T23:39:09.436Z,16.95
2019-01-19T23:41:38.680Z,19.87
2019-01-19T23:44:07.859Z,16.65
2019-01-19T23:46:36.797Z,17.92
2019-01-19T23:49:05.751Z,18.50
2019-01-19T23:51:34.628Z,17.67
2019-01-19T23:54:03.665Z,18.00
2019-01-19T23:56:32.860Z,18.42
2019-01-19T23:59:02.064Z,18.55
